createdAt,value
2019-02-22T00:00:36.987Z,1013.02
2019-02-22T00:01:36.970Z,1013.03
2019-02-22T00:02:36.990Z,1013.03
2019-02-22T00:03:36.979Z,1013.02
2019-02-22T00:04:36.980Z,1013.10
2019-02-22T00:05:36.911Z,1013.08
2019-02-22T00:06:36.936Z,1013.11
2019-02-22T00:07:36.900Z,1013.10
2019-02-22T00:08:36.895Z,1013.07
2019-02-22T00:09:36.908Z,1013.07
2019-02-22T00:10:36.874Z,1013.08
2019-02-22T00:11:36.846Z,1013.11
2019-02-22T00:12:36.844Z,1013.20
2019-02-22T00:13:36.906Z,1013.14
2019-02-22T00:14:36.907Z,1013.17
2019-02-22T00:15:36.821Z,1013.20
2019-02-22T00:16:36.800Z,1013.21
2019-02-22T00:17:36.803Z,1013.20
2019-02-22T00:18:36.774Z,1013.16
2019-02-22T00:19:36.775Z,1013.14
2019-02-22T00:20:36.779Z,1013.14
2019-02-22T00:21:36.748Z,1013.17
2019-02-22T00:22:36.726Z,1013.19
2019-02-22T00:23:36.749Z,1013.16
2019-02-22T00:24:36.709Z,1013.16
2019-02-22T00:25:36.795Z,1013.19
2019-02-22T00:26:36.698Z,1013.23
2019-02-22T00:27:36.676Z,1013.24
2019-02-22T00:28:36.686Z,1013.19
2019-02-22T00:29:36.652Z,1013.20
2019-02-22T00:30:36.694Z,1013.26
2019-02-22T00:31:36.698Z,1013.24
2019-02-22T00:32:36.662Z,1013.24
2019-02-22T00:33:36.606Z,1013.27
2019-02-22T00:34:36.612Z,1013.23
2019-02-22T00:35:36.617Z,1013.27
2019-02-22T00:36:36.719Z,1013.32
2019-02-22T00:37:36.644Z,1013.35
2019-02-22T00:38:36.561Z,1013.28
2019-02-22T00:41:00.495Z,1013.33
2019-02-22T00:41:45.854Z,1013.36
2019-02-22T00:42:45.814Z,1013.31
2019-02-22T00:43:45.804Z,1013.30
2019-02-22T00:44:45.798Z,1013.26
2019-02-22T00:45:45.783Z,1013.30
2019-02-22T00:46:45.805Z,1013.29
2019-02-22T00:47:45.766Z,1013.37
2019-02-22T00:48:45.759Z,1013.33
2019-02-22T00:49:45.748Z,1013.26
2019-02-22T00:50:45.744Z,1013.23
2019-02-22T00:51:45.734Z,1013.26
2019-02-22T00:52:45.735Z,1013.26
2019-02-22T00:53:45.702Z,1013.30
2019-02-22T00:54:45.685Z,1013.28
2019-02-22T00:55:45.675Z,1013.36
2019-02-22T00:56:45.684Z,1013.24
2019-02-22T00:57:45.682Z,1013.26
2019-02-22T00:58:45.664Z,1013.23
2019-02-22T00:59:45.632Z,1013.20
2019-02-22T01:00:45.618Z,1013.21
2019-02-22T01:01:45.612Z,1013.21
2019-02-22T01:02:45.616Z,1013.22
2019-02-22T01:03:45.602Z,1013.24
2019-02-22T01:04:45.578Z,1013.24
2019-02-22T01:05:45.566Z,1013.24
2019-02-22T01:06:45.553Z,1013.17
2019-02-22T01:07:45.599Z,1013.23
2019-02-22T01:08:45.533Z,1013.21
2019-02-22T01:09:45.530Z,1013.20
2019-02-22T01:10:45.512Z,1013.21
2019-02-22T01:11:45.512Z,1013.30
2019-02-22T01:12:45.486Z,1013.19
2019-02-22T01:13:45.499Z,1013.27
2019-02-22T01:14:45.475Z,1013.27
2019-02-22T01:15:45.453Z,1013.38
2019-02-22T01:16:45.445Z,1013.39
2019-02-22T01:17:45.441Z,1013.47
2019-02-22T01:18:45.449Z,1013.33
2019-02-22T01:19:45.411Z,1013.41
2019-02-22T01:20:54.020Z,1013.35
2019-02-22T01:21:46.409Z,1013.45
2019-02-22T01:22:45.379Z,1013.42
2019-02-22T01:23:45.387Z,1013.39
2019-02-22T01:24:45.404Z,1013.52
2019-02-22T01:25:45.342Z,1013.59
2019-02-22T01:26:45.333Z,1013.47
2019-02-22T01:27:45.365Z,1013.49
2019-02-22T01:28:45.319Z,1013.48
2019-02-22T01:29:45.304Z,1013.42
2019-02-22T01:30:45.315Z,1013.53
2019-02-22T01:31:45.284Z,1013.50
2019-02-22T01:32:45.380Z,1013.51
2019-02-22T01:33:45.275Z,1013.52
2019-02-22T01:34:45.251Z,1013.52
2019-02-22T01:35:45.302Z,1013.52
2019-02-22T01:36:45.228Z,1013.55
2019-02-22T01:37:45.220Z,1013.56
2019-02-22T01:38:45.225Z,1013.61
2019-02-22T01:39:45.191Z,1013.62
2019-02-22T01:40:45.193Z,1013.63
2019-02-22T01:41:45.166Z,1013.59
2019-02-22T01:42:45.159Z,1013.52
2019-02-22T01:43:45.174Z,1013.60
2019-02-22T01:44:45.142Z,1013.62
2019-02-22T01:45:45.141Z,1013.65
2019-02-22T01:46:45.128Z,1013.66
2019-02-22T01:47:45.100Z,1013.64
2019-02-22T01:48:45.092Z,1013.69
2019-02-22T01:49:45.111Z,1013.74
2019-02-22T01:50:45.066Z,1013.77
2019-02-22T01:51:45.068Z,1013.68
2019-02-22T01:52:45.042Z,1013.72
2019-02-22T01:53:45.032Z,1013.80
2019-02-22T01:54:45.049Z,1013.77
2019-02-22T01:55:45.053Z,1013.77
2019-02-22T01:56:44.999Z,1013.82
2019-02-22T01:57:44.996Z,1013.78
2019-02-22T01:58:48.700Z,1013.83
2019-02-22T01:59:45.007Z,1013.85
2019-02-22T02:00:44.959Z,1013.80
2019-02-22T02:01:44.945Z,1013.85
2019-02-22T02:02:44.931Z,1013.85
2019-02-22T02:03:44.941Z,1013.84
2019-02-22T02:04:45.021Z,1013.87
2019-02-22T02:05:44.929Z,1013.91
2019-02-22T02:06:44.891Z,1013.95
2019-02-22T02:07:44.882Z,1013.92
2019-02-22T02:08:44.873Z,1013.94
2019-02-22T02:09:44.872Z,1013.93
2019-02-22T02:10:53.938Z,1013.99
2019-02-22T02:11:45.849Z,1014.07
2019-02-22T02:12:44.823Z,1014.03
2019-02-22T02:13:44.813Z,1014.07
2019-02-22T02:14:44.806Z,1014.13
2019-02-22T02:15:44.809Z,1014.07
2019-02-22T02:16:44.777Z,1014.02
2019-02-22T02:17:44.770Z,1014.08
2019-02-22T02:18:44.793Z,1014.13
2019-02-22T02:19:44.743Z,1014.11
2019-02-22T02:20:44.746Z,1014.10
2019-02-22T02:21:44.759Z,1014.17
2019-02-22T02:22:45.442Z,1014.18
2019-02-22T02:23:44.702Z,1014.21
2019-02-22T02:24:44.697Z,1014.23
2019-02-22T02:25:44.681Z,1014.20
2019-02-22T02:26:44.687Z,1014.18
2019-02-22T02:27:44.727Z,1014.26
2019-02-22T02:28:44.650Z,1014.23
2019-02-22T02:29:44.638Z,1014.28
2019-02-22T02:30:44.627Z,1014.26
2019-02-22T02:31:44.648Z,1014.26
2019-02-22T02:32:44.611Z,1014.26
2019-02-22T02:33:44.593Z,1014.26
2019-02-22T02:34:44.580Z,1014.27
2019-02-22T02:35:44.569Z,1014.30
2019-02-22T02:36:44.596Z,1014.27
2019-02-22T02:37:44.562Z,1014.28
2019-02-22T02:38:44.541Z,1014.31
2019-02-22T02:39:44.525Z,1014.27
2019-02-22T02:40:44.519Z,1014.28
2019-02-22T02:41:44.539Z,1014.28
2019-02-22T02:42:44.502Z,1014.39
2019-02-22T02:43:44.482Z,1014.28
2019-02-22T02:44:44.471Z,1014.30
2019-02-22T02:45:44.497Z,1014.34
2019-02-22T02:46:44.456Z,1014.34
2019-02-22T02:47:44.458Z,1014.40
2019-02-22T02:48:44.438Z,1014.42
2019-02-22T02:49:44.418Z,1014.42
2019-02-22T02:50:44.408Z,1014.39
2019-02-22T02:51:44.405Z,1014.39
2019-02-22T02:52:44.406Z,1014.44
2019-02-22T02:53:44.385Z,1014.43
2019-02-22T02:54:44.361Z,1014.48
2019-02-22T02:55:44.367Z,1014.45
2019-02-22T02:56:46.242Z,1014.43
2019-02-22T02:57:44.395Z,1014.44
2019-02-22T02:58:44.325Z,1014.51
2019-02-22T02:59:44.342Z,1014.49
2019-02-22T03:00:44.294Z,1014.48
2019-02-22T03:01:44.357Z,1014.48
2019-02-22T03:02:44.281Z,1014.54
2019-02-22T03:03:44.267Z,1014.49
2019-02-22T03:04:44.271Z,1014.56
2019-02-22T03:05:44.242Z,1014.49
2019-02-22T03:06:44.238Z,1014.57
2019-02-22T03:07:44.253Z,1014.58
2019-02-22T03:08:44.209Z,1014.65
2019-02-22T03:09:44.197Z,1014.65
2019-02-22T03:10:44.202Z,1014.63
2019-02-22T03:11:44.175Z,1014.59
2019-02-22T03:12:44.165Z,1014.67
2019-02-22T03:13:44.160Z,1014.74
2019-02-22T03:14:44.210Z,1014.68
2019-02-22T03:15:44.131Z,1014.72
2019-02-22T03:16:44.121Z,1014.74
2019-02-22T03:17:44.114Z,1014.69
2019-02-22T03:18:44.101Z,1014.79
2019-02-22T03:19:44.118Z,1014.77
2019-02-22T03:20:44.082Z,1014.77
2019-02-22T03:21:44.062Z,1014.80
2019-02-22T03:22:44.071Z,1014.84
2019-02-22T03:23:44.053Z,1014.93
2019-02-22T03:24:44.059Z,1014.90
2019-02-22T03:25:44.043Z,1014.90
2019-02-22T03:26:44.012Z,1014.98
2019-02-22T03:27:44.002Z,1014.89
2019-02-22T03:28:43.986Z,1014.92
2019-02-22T03:29:43.991Z,1014.97
2019-02-22T03:30:43.989Z,1014.95
2019-02-22T03:31:43.962Z,1014.99
2019-02-22T03:32:43.945Z,1015.02
2019-02-22T03:33:43.935Z,1015.05
2019-02-22T03:34:43.920Z,1015.01
2019-02-22T03:35:43.958Z,1015.02
2019-02-22T03:36:43.906Z,1015.00
2019-02-22T03:37:43.894Z,1015.02
2019-02-22T03:38:43.900Z,1015.00
2019-02-22T03:39:43.874Z,1015.06
2019-02-22T03:40:43.856Z,1014.96
2019-02-22T03:41:43.861Z,1015.00
2019-02-22T03:42:43.845Z,1014.96
2019-02-22T03:43:43.830Z,1014.95
2019-02-22T03:44:43.830Z,1015.06
2019-02-22T03:45:43.806Z,1015.00
2019-02-22T03:46:43.810Z,1015.06
2019-02-22T03:47:43.803Z,1015.06
2019-02-22T03:48:43.771Z,1014.98
2019-02-22T03:49:43.781Z,1015.07
2019-02-22T03:50:43.790Z,1015.03
2019-02-22T03:51:43.844Z,1015.03
2019-02-22T03:52:43.746Z,1015.09
2019-02-22T03:53:43.724Z,1015.14
2019-02-22T03:54:43.711Z,1015.14
2019-02-22T03:55:43.694Z,1015.18
2019-02-22T03:56:43.680Z,1015.17
2019-02-22T03:57:43.695Z,1015.22
2019-02-22T03:58:43.689Z,1015.29
2019-02-22T03:59:43.658Z,1015.20
2019-02-22T04:00:43.647Z,1015.27
2019-02-22T04:01:43.643Z,1015.23
2019-02-22T04:02:43.637Z,1015.24
2019-02-22T04:03:43.603Z,1015.22
2019-02-22T04:04:43.595Z,1015.29
2019-02-22T04:05:43.594Z,1015.34
2019-02-22T04:06:43.571Z,1015.29
2019-02-22T04:07:43.579Z,1015.31
2019-02-22T04:08:43.557Z,1015.37
2019-02-22T04:09:43.540Z,1015.38
2019-02-22T04:10:43.533Z,1015.37
2019-02-22T04:11:46.042Z,1015.39
2019-02-22T04:12:43.557Z,1015.47
2019-02-22T04:13:43.496Z,1015.45
2019-02-22T04:14:43.483Z,1015.52
2019-02-22T04:15:43.473Z,1015.46
2019-02-22T04:16:43.476Z,1015.57
2019-02-22T04:17:43.454Z,1015.60
2019-02-22T04:18:43.471Z,1015.58
2019-02-22T04:19:43.427Z,1015.71
2019-02-22T04:20:43.413Z,1015.58
2019-02-22T04:21:43.410Z,1015.60
2019-02-22T04:22:44.434Z,1015.61
2019-02-22T04:23:43.409Z,1015.65
2019-02-22T04:24:43.369Z,1015.69
2019-02-22T04:25:43.366Z,1015.66
2019-02-22T04:26:43.353Z,1015.70
2019-02-22T04:27:43.336Z,1015.69
2019-02-22T04:28:43.379Z,1015.77
2019-02-22T04:29:43.319Z,1015.76
2019-02-22T04:30:43.316Z,1015.72
2019-02-22T04:31:43.315Z,1015.82
2019-02-22T04:32:43.295Z,1015.78
2019-02-22T04:33:43.276Z,1015.83
2019-02-22T04:34:43.315Z,1015.83
2019-02-22T04:35:43.261Z,1015.88
2019-02-22T04:36:43.245Z,1015.91
2019-02-22T04:37:43.231Z,1015.91
2019-02-22T04:38:43.226Z,1015.93
2019-02-22T04:39:43.232Z,1015.87
2019-02-22T04:40:43.196Z,1015.95
2019-02-22T04:41:43.186Z,1015.91
2019-02-22T04:42:43.211Z,1015.97
2019-02-22T04:43:43.164Z,1015.92
2019-02-22T04:44:43.198Z,1015.96
2019-02-22T04:45:43.145Z,1015.97
2019-02-22T04:46:43.135Z,1015.96
2019-02-22T04:47:43.123Z,1015.95
2019-02-22T04:48:43.107Z,1015.98
2019-02-22T04:49:43.113Z,1015.99
2019-02-22T04:50:43.109Z,1015.98
2019-02-22T04:51:43.108Z,1016.05
2019-02-22T04:52:43.065Z,1016.03
2019-02-22T04:53:43.052Z,1016.06
2019-02-22T04:54:43.040Z,1016.05
2019-02-22T04:55:43.084Z,1016.04
2019-02-22T04:56:43.027Z,1016.12
2019-02-22T04:57:43.015Z,1016.10
2019-02-22T04:58:42.998Z,1016.09
2019-02-22T04:59:42.982Z,1016.04
2019-02-22T05:00:43.004Z,1016.09
2019-02-22T05:01:42.965Z,1016.17
2019-02-22T05:02:42.968Z,1016.22
2019-02-22T05:03:42.943Z,1016.19
2019-02-22T05:04:42.933Z,1016.20
2019-02-22T05:05:42.917Z,1016.23
2019-02-22T05:06:42.930Z,1016.22
2019-02-22T05:07:42.899Z,1016.28
2019-02-22T05:08:42.894Z,1016.29
2019-02-22T05:09:42.893Z,1016.27
2019-02-22T05:10:42.867Z,1016.32
2019-02-22T05:11:42.997Z,1016.27
2019-02-22T05:12:42.869Z,1016.39
2019-02-22T05:13:42.836Z,1016.37
2019-02-22T05:14:42.820Z,1016.35
2019-02-22T05:15:42.807Z,1016.34
2019-02-22T05:16:42.833Z,1016.41
2019-02-22T05:17:42.790Z,1016.33
2019-02-22T05:18:42.775Z,1016.44
2019-02-22T05:19:42.770Z,1016.40
2019-02-22T05:20:42.751Z,1016.44
2019-02-22T05:21:42.909Z,1016.48
2019-02-22T05:22:42.761Z,1016.47
2019-02-22T05:23:42.721Z,1016.43
2019-02-22T05:24:42.712Z,1016.48
2019-02-22T05:25:42.707Z,1016.46
2019-02-22T05:26:42.687Z,1016.53
2019-02-22T05:27:42.705Z,1016.51
2019-02-22T05:28:42.665Z,1016.51
2019-02-22T05:29:42.656Z,1016.55
2019-02-22T05:30:42.646Z,1016.50
2019-02-22T05:31:42.632Z,1016.54
2019-02-22T05:32:42.703Z,1016.56
2019-02-22T05:33:42.611Z,1016.53
2019-02-22T05:34:42.601Z,1016.63
2019-02-22T05:35:42.621Z,1016.60
2019-02-22T05:36:44.263Z,1016.62
2019-02-22T05:37:42.592Z,1016.61
2019-02-22T05:38:42.559Z,1016.61
2019-02-22T05:39:42.553Z,1016.65
2019-02-22T05:40:42.531Z,1016.68
2019-02-22T05:41:42.522Z,1016.65
2019-02-22T05:42:42.533Z,1016.72
2019-02-22T05:43:43.349Z,1016.70
2019-02-22T05:44:42.505Z,1016.76
2019-02-22T05:45:42.479Z,1016.67
2019-02-22T05:46:42.474Z,1016.71
2019-02-22T05:47:42.470Z,1016.78
2019-02-22T05:48:42.451Z,1016.73
2019-02-22T05:49:42.456Z,1016.72
2019-02-22T05:50:42.423Z,1016.78
2019-02-22T05:51:42.426Z,1016.77
2019-02-22T05:52:42.410Z,1016.85
2019-02-22T05:53:42.413Z,1016.83
2019-02-22T05:54:42.382Z,1016.87
2019-02-22T05:55:44.290Z,1016.82
2019-02-22T05:56:42.365Z,1016.92
2019-02-22T05:57:42.361Z,1016.90
2019-02-22T05:58:42.387Z,1016.93
2019-02-22T05:59:42.331Z,1016.99
2019-02-22T06:00:42.318Z,1017.00
2019-02-22T06:01:42.302Z,1017.01
2019-02-22T06:02:42.295Z,1017.04
2019-02-22T06:03:42.319Z,1017.05
2019-02-22T06:04:42.313Z,1017.14
2019-02-22T06:05:42.257Z,1017.13
2019-02-22T06:06:42.249Z,1017.17
2019-02-22T06:07:42.239Z,1017.13
2019-02-22T06:08:42.276Z,1017.13
2019-02-22T06:09:42.233Z,1017.21
2019-02-22T06:10:42.204Z,1017.21
2019-02-22T06:11:42.258Z,1017.26
2019-02-22T06:12:42.182Z,1017.32
2019-02-22T06:13:42.169Z,1017.31
2019-02-22T06:14:42.179Z,1017.41
2019-02-22T06:15:42.146Z,1017.35
2019-02-22T06:16:42.143Z,1017.41
2019-02-22T06:17:42.125Z,1017.39
2019-02-22T06:18:42.116Z,1017.35
2019-02-22T06:19:42.135Z,1017.38
2019-02-22T06:20:42.095Z,1017.37
2019-02-22T06:21:42.092Z,1017.41
2019-02-22T06:22:42.074Z,1017.45
2019-02-22T06:23:42.076Z,1017.40
2019-02-22T06:24:42.055Z,1017.39
2019-02-22T06:25:42.060Z,1017.45
2019-02-22T06:26:42.027Z,1017.48
2019-02-22T06:27:42.022Z,1017.49
2019-02-22T06:28:42.016Z,1017.50
2019-02-22T06:29:41.995Z,1017.55
2019-02-22T06:30:42.001Z,1017.60
2019-02-22T06:31:41.971Z,1017.66
2019-02-22T06:32:42.406Z,1017.66
2019-02-22T06:33:41.952Z,1017.66
2019-02-22T06:34:41.951Z,1017.72
2019-02-22T06:35:41.942Z,1017.69
2019-02-22T06:36:41.944Z,1017.72
2019-02-22T06:37:41.904Z,1017.78
2019-02-22T06:38:41.913Z,1017.82
2019-02-22T06:39:41.894Z,1017.76
2019-02-22T06:40:41.903Z,1017.79
2019-02-22T06:41:41.859Z,1017.85
2019-02-22T06:42:45.750Z,1017.95
2019-02-22T06:43:41.846Z,1017.94
2019-02-22T06:44:41.829Z,1017.89
2019-02-22T06:45:41.826Z,1017.94
2019-02-22T06:46:41.824Z,1017.98
2019-02-22T06:47:41.801Z,1017.95
2019-02-22T06:48:41.786Z,1018.00
2019-02-22T06:49:44.344Z,1017.98
2019-02-22T06:50:41.765Z,1017.94
2019-02-22T06:51:41.772Z,1018.05
2019-02-22T06:52:41.738Z,1018.03
2019-02-22T06:53:41.751Z,1018.05
2019-02-22T06:54:41.720Z,1018.08
2019-02-22T06:55:41.715Z,1018.07
2019-02-22T06:56:41.721Z,1018.09
2019-02-22T06:57:41.698Z,1018.06
2019-02-22T06:58:41.692Z,1018.10
2019-02-22T06:59:41.684Z,1018.08
2019-02-22T07:00:41.676Z,1018.12
2019-02-22T07:01:41.650Z,1018.17
2019-02-22T07:02:41.666Z,1018.15
2019-02-22T07:03:41.696Z,1018.17
2019-02-22T07:04:41.638Z,1018.25
2019-02-22T07:05:41.631Z,1018.27
2019-02-22T07:06:41.584Z,1018.23
2019-02-22T07:07:41.604Z,1018.25
2019-02-22T07:08:41.566Z,1018.30
2019-02-22T07:09:41.565Z,1018.23
2019-02-22T07:10:41.546Z,1018.28
2019-02-22T07:11:41.552Z,1018.27
2019-02-22T07:12:41.701Z,1018.32
2019-02-22T07:13:41.509Z,1018.35
2019-02-22T07:14:41.499Z,1018.33
2019-02-22T07:15:41.489Z,1018.42
2019-02-22T07:16:41.478Z,1018.41
2019-02-22T07:17:41.523Z,1018.43
2019-02-22T07:18:41.475Z,1018.48
2019-02-22T07:19:41.469Z,1018.50
2019-02-22T07:20:41.444Z,1018.51
2019-02-22T07:21:52.089Z,1018.51
2019-02-22T07:22:42.407Z,1018.53
2019-02-22T07:23:41.468Z,1018.59
2019-02-22T07:24:41.387Z,1018.57
2019-02-22T07:25:41.396Z,1018.58
2019-02-22T07:26:41.397Z,1018.59
2019-02-22T07:27:41.380Z,1018.63
2019-02-22T07:28:41.449Z,1018.66
2019-02-22T07:29:41.354Z,1018.64
2019-02-22T07:30:41.321Z,1018.66
2019-02-22T07:31:41.311Z,1018.75
2019-02-22T07:32:41.382Z,1018.70
2019-02-22T07:33:41.378Z,1018.81
2019-02-22T07:34:41.313Z,1018.77
2019-02-22T07:35:41.290Z,1018.87
2019-02-22T07:36:41.264Z,1018.85
2019-02-22T07:37:41.253Z,1018.86
2019-02-22T07:38:41.249Z,1018.88
2019-02-22T07:39:41.249Z,1018.85
2019-02-22T07:40:41.219Z,1018.90
2019-02-22T07:41:41.206Z,1019.02
2019-02-22T07:42:41.208Z,1018.98
2019-02-22T07:43:41.181Z,1019.02
2019-02-22T07:44:41.200Z,1019.01
2019-02-22T07:45:41.207Z,1019.04
2019-02-22T07:46:41.190Z,1019.09
2019-02-22T07:47:41.211Z,1019.06
2019-02-22T07:48:41.123Z,1019.04
2019-02-22T07:49:41.140Z,1019.06
2019-02-22T07:50:41.106Z,1019.15
2019-02-22T07:51:41.091Z,1019.12
2019-02-22T07:52:41.080Z,1019.10
2019-02-22T07:53:41.086Z,1019.15
2019-02-22T07:54:41.055Z,1019.18
2019-02-22T07:55:41.056Z,1019.16
2019-02-22T07:56:41.038Z,1019.15
2019-02-22T07:57:41.032Z,1019.19
2019-02-22T07:58:41.052Z,1019.17
2019-02-22T07:59:41.011Z,1019.25
2019-02-22T08:00:41.020Z,1019.27
2019-02-22T08:01:47.431Z,1019.36
2019-02-22T08:02:41.970Z,1019.35
2019-02-22T08:03:40.997Z,1019.37
2019-02-22T08:04:40.954Z,1019.45
2019-02-22T08:05:40.945Z,1019.43
2019-02-22T08:06:42.525Z,1019.48
2019-02-22T08:07:40.917Z,1019.52
2019-02-22T08:08:40.904Z,1019.56
2019-02-22T08:09:40.915Z,1019.56
2019-02-22T08:10:40.886Z,1019.59
2019-02-22T08:11:40.870Z,1019.68
2019-02-22T08:12:40.858Z,1019.76
2019-02-22T08:13:40.853Z,1019.77
2019-02-22T08:14:40.869Z,1019.79
2019-02-22T08:15:40.842Z,1019.88
2019-02-22T08:16:40.817Z,1019.84
2019-02-22T08:17:40.809Z,1019.81
2019-02-22T08:18:40.795Z,1019.86
2019-02-22T08:19:40.811Z,1019.86
2019-02-22T08:20:40.776Z,1019.94
2019-02-22T08:21:40.761Z,1019.90
2019-02-22T08:22:40.748Z,1019.92
2019-02-22T08:23:40.743Z,1019.93
2019-02-22T08:24:40.771Z,1019.92
2019-02-22T08:25:40.729Z,1020.01
2019-02-22T08:26:40.732Z,1020.04
2019-02-22T08:27:52.752Z,1019.97
2019-02-22T08:28:41.683Z,1020.09
2019-02-22T08:29:40.671Z,1020.12
2019-02-22T08:30:40.696Z,1020.13
2019-02-22T08:31:40.663Z,1020.21
2019-02-22T08:32:40.646Z,1020.16
2019-02-22T08:33:40.634Z,1020.23
2019-02-22T08:34:40.620Z,1020.19
2019-02-22T08:35:40.614Z,1020.30
2019-02-22T08:36:40.616Z,1020.33
2019-02-22T08:37:40.582Z,1020.30
2019-02-22T08:38:40.575Z,1020.32
2019-02-22T08:39:40.583Z,1020.37
2019-02-22T08:40:40.549Z,1020.40
2019-02-22T08:41:40.572Z,1020.36
2019-02-22T08:42:40.535Z,1020.43
2019-02-22T08:43:40.521Z,1020.48
2019-02-22T08:44:40.505Z,1020.55
2019-02-22T08:45:40.501Z,1020.49
2019-02-22T08:46:40.517Z,1020.57
2019-02-22T08:47:40.484Z,1020.67
2019-02-22T08:48:40.469Z,1020.62
2019-02-22T08:49:40.457Z,1020.65
2019-02-22T08:50:40.445Z,1020.86
2019-02-22T08:51:40.472Z,1020.69
2019-02-22T08:52:40.424Z,1020.62
2019-02-22T08:53:40.415Z,1020.72
2019-02-22T08:54:46.953Z,1020.81
2019-02-22T08:55:41.383Z,1020.73
2019-02-22T08:56:40.398Z,1020.90
2019-02-22T08:57:40.365Z,1020.85
2019-02-22T08:58:40.367Z,1020.88
2019-02-22T08:59:40.347Z,1021.14
2019-02-22T09:00:40.332Z,1020.91
2019-02-22T09:01:40.390Z,1020.92
2019-02-22T09:02:40.309Z,1021.07
2019-02-22T09:03:49.893Z,1021.05
2019-02-22T09:04:41.287Z,1021.02
2019-02-22T09:05:40.279Z,1021.10
2019-02-22T09:06:40.263Z,1021.11
2019-02-22T09:07:40.271Z,1021.08
2019-02-22T09:08:40.253Z,1021.09
2019-02-22T09:09:40.232Z,1021.11
2019-02-22T09:10:40.220Z,1021.16
2019-02-22T09:11:40.212Z,1021.14
2019-02-22T09:12:40.223Z,1021.20
2019-02-22T09:13:43.472Z,1021.19
2019-02-22T09:14:40.182Z,1021.17
2019-02-22T09:15:40.164Z,1021.22
2019-02-22T09:16:40.190Z,1021.27
2019-02-22T09:17:40.164Z,1021.17
2019-02-22T09:18:40.139Z,1021.35
2019-02-22T09:19:40.124Z,1021.30
2019-02-22T09:20:40.143Z,1021.36
2019-02-22T09:21:40.104Z,1021.27
2019-02-22T09:22:40.108Z,1021.36
2019-02-22T09:23:40.120Z,1021.36
2019-02-22T09:24:40.064Z,1021.51
2019-02-22T09:25:40.054Z,1021.47
2019-02-22T09:26:40.047Z,1021.43
2019-02-22T09:27:40.054Z,1021.40
2019-02-22T09:28:40.021Z,1021.40
2019-02-22T09:29:40.014Z,1021.52
2019-02-22T09:30:39.995Z,1021.49
2019-02-22T09:31:39.983Z,1021.51
2019-02-22T09:32:39.991Z,1021.62
2019-02-22T09:33:39.979Z,1021.58
2019-02-22T09:34:39.961Z,1021.54
2019-02-22T09:35:39.951Z,1021.62
2019-02-22T09:36:39.955Z,1021.58
2019-02-22T09:37:39.941Z,1021.68
2019-02-22T09:38:39.917Z,1021.66
2019-02-22T09:39:39.903Z,1021.76
2019-02-22T09:40:39.888Z,1021.69
2019-02-22T09:41:39.890Z,1021.75
2019-02-22T09:42:39.886Z,1021.76
2019-02-22T09:43:39.861Z,1021.80
2019-02-22T09:44:39.858Z,1021.75
2019-02-22T09:45:39.848Z,1021.84
2019-02-22T09:46:39.816Z,1021.77
2019-02-22T09:47:39.842Z,1021.80
2019-02-22T09:48:39.798Z,1021.82
2019-02-22T09:49:39.791Z,1021.83
2019-02-22T09:50:39.774Z,1021.85
2019-02-22T09:51:41.239Z,1021.93
2019-02-22T09:52:39.759Z,1021.84
2019-02-22T09:53:39.762Z,1021.95
2019-02-22T09:54:39.741Z,1021.97
2019-02-22T09:55:39.719Z,1021.99
2019-02-22T09:56:39.719Z,1021.93
2019-02-22T09:57:39.704Z,1022.00
2019-02-22T09:58:39.720Z,1022.03
2019-02-22T09:59:39.717Z,1022.08
2019-02-22T10:00:39.741Z,1022.10
2019-02-22T10:01:39.661Z,1022.24
2019-02-22T10:02:39.668Z,1022.08
2019-02-22T10:03:39.770Z,1022.17
2019-02-22T10:04:39.662Z,1022.14
2019-02-22T10:05:39.649Z,1022.20
2019-02-22T10:06:39.616Z,1022.15
2019-02-22T10:07:39.594Z,1022.23
2019-02-22T10:08:39.618Z,1022.24
2019-02-22T10:09:39.620Z,1022.17
2019-02-22T10:10:39.585Z,1022.32
2019-02-22T10:11:39.564Z,1022.29
2019-02-22T10:12:39.558Z,1022.27
2019-02-22T10:13:39.551Z,1022.34
2019-02-22T10:14:39.549Z,1022.30
2019-02-22T10:15:39.532Z,1022.30
2019-02-22T10:16:39.502Z,1022.34
2019-02-22T10:17:39.484Z,1022.40
2019-02-22T10:18:39.469Z,1022.43
2019-02-22T10:19:39.481Z,1022.46
2019-02-22T10:20:39.445Z,1022.43
2019-02-22T10:21:39.455Z,1022.41
2019-02-22T10:22:39.456Z,1022.43
2019-02-22T10:23:39.418Z,1022.55
2019-02-22T10:24:39.403Z,1022.67
2019-02-22T10:25:39.388Z,1022.63
2019-02-22T10:26:39.378Z,1022.66
2019-02-22T10:27:39.368Z,1022.65
2019-02-22T10:28:39.387Z,1022.64
2019-02-22T10:29:39.355Z,1022.68
2019-02-22T10:30:39.336Z,1022.63
2019-02-22T10:31:39.321Z,1022.57
2019-02-22T10:32:39.318Z,1022.68
2019-02-22T10:33:39.326Z,1022.65
2019-02-22T10:34:39.296Z,1022.62
2019-02-22T10:35:39.279Z,1022.64
2019-02-22T10:36:45.078Z,1022.70
2019-02-22T10:37:40.261Z,1022.67
2019-02-22T10:38:39.265Z,1022.67
2019-02-22T10:39:39.269Z,1022.73
2019-02-22T10:40:39.459Z,1022.87
2019-02-22T10:41:39.220Z,1022.76
2019-02-22T10:42:39.212Z,1022.79
2019-02-22T10:43:39.190Z,1022.83
2019-02-22T10:44:39.180Z,1022.77
2019-02-22T10:45:39.191Z,1022.80
2019-02-22T10:46:39.156Z,1022.84
2019-02-22T10:47:39.147Z,1022.87
2019-02-22T10:48:39.137Z,1022.92
2019-02-22T10:49:39.122Z,1023.01
2019-02-22T10:50:39.141Z,1022.95
2019-02-22T10:51:39.106Z,1022.95
2019-02-22T10:52:39.093Z,1023.00
2019-02-22T10:53:39.079Z,1023.00
2019-02-22T10:54:39.074Z,1023.04
2019-02-22T10:55:39.089Z,1023.09
2019-02-22T10:56:39.664Z,1023.12
2019-02-22T10:57:39.044Z,1023.09
2019-02-22T10:58:39.033Z,1023.16
2019-02-22T10:59:39.020Z,1023.18
2019-02-22T11:00:39.010Z,1023.13
2019-02-22T11:01:39.020Z,1023.25
2019-02-22T11:02:38.990Z,1023.24
2019-02-22T11:03:39.051Z,1023.32
2019-02-22T11:04:38.968Z,1023.28
2019-02-22T11:05:38.949Z,1023.27
2019-02-22T11:06:38.981Z,1023.35
2019-02-22T11:07:38.937Z,1023.29
2019-02-22T11:08:38.925Z,1023.34
2019-02-22T11:09:38.908Z,1023.37
2019-02-22T11:10:38.898Z,1023.38
2019-02-22T11:11:38.921Z,1023.32
2019-02-22T11:12:38.877Z,1023.37
2019-02-22T11:13:38.894Z,1023.37
2019-02-22T11:14:38.856Z,1023.34
2019-02-22T11:15:38.843Z,1023.39
2019-02-22T11:16:38.833Z,1023.46
2019-02-22T11:17:38.822Z,1023.38
2019-02-22T11:18:39.495Z,1023.37
2019-02-22T11:19:38.866Z,1023.38
2019-02-22T11:20:38.792Z,1023.40
2019-02-22T11:21:38.782Z,1023.38
2019-02-22T11:22:38.766Z,1023.39
2019-02-22T11:23:38.755Z,1023.43
2019-02-22T11:24:38.769Z,1023.55
2019-02-22T11:25:38.743Z,1023.58
2019-02-22T11:26:38.752Z,1023.58
2019-02-22T11:27:38.724Z,1023.63
2019-02-22T11:28:38.708Z,1023.64
2019-02-22T11:29:38.713Z,1023.70
2019-02-22T11:30:38.682Z,1023.85
2019-02-22T11:31:38.727Z,1023.79
2019-02-22T11:32:38.661Z,1023.74
2019-02-22T11:33:38.654Z,1023.75
2019-02-22T11:34:38.675Z,1023.73
2019-02-22T11:35:38.629Z,1023.84
2019-02-22T11:36:38.619Z,1023.84
2019-02-22T11:37:38.612Z,1023.85
2019-02-22T11:38:38.607Z,1023.89
2019-02-22T11:39:38.585Z,1023.86
2019-02-22T11:40:38.589Z,1023.84
2019-02-22T11:41:38.571Z,1023.88
2019-02-22T11:42:38.557Z,1023.88
2019-02-22T11:43:38.558Z,1023.89
2019-02-22T11:44:40.449Z,1023.94
2019-02-22T11:45:38.541Z,1023.94
2019-02-22T11:46:38.509Z,1023.95
2019-02-22T11:47:38.505Z,1023.95
2019-02-22T11:48:38.495Z,1024.01
2019-02-22T11:49:38.475Z,1023.98
2019-02-22T11:50:38.496Z,1023.97
2019-02-22T11:51:38.451Z,1024.06
2019-02-22T11:52:38.446Z,1024.03
2019-02-22T11:53:38.439Z,1024.07
2019-02-22T11:54:38.427Z,1024.07
2019-02-22T11:55:38.407Z,1024.08
2019-02-22T11:56:38.427Z,1024.06
2019-02-22T11:57:38.391Z,1024.13
2019-02-22T11:58:38.374Z,1024.15
2019-02-22T11:59:38.376Z,1024.08
2019-02-22T12:00:38.360Z,1024.15
2019-02-22T12:01:38.368Z,1024.18
2019-02-22T12:02:38.339Z,1024.19
2019-02-22T12:03:38.333Z,1024.24
2019-02-22T12:04:38.310Z,1024.15
2019-02-22T12:05:38.299Z,1024.17
2019-02-22T12:06:38.329Z,1024.21